sensor_id;sensor_type;location;lat;lon;timestamp;P1;durP1;ratioP1;P2;durP2;ratioP2
46753;SDS011;32500;50.620;3.400;2023-02-28T00:00:19;54.97;;;46.47;;
46753;SDS011;32500;50.620;3.400;2023-02-28T00:02:45;55.03;;;46.38;;
46753;SDS011;32500;50.620;3.400;2023-02-28T00:05:12;55.03;;;46.63;;
46753;SDS011;32500;50.620;3.400;2023-02-28T00:07:40;54.75;;;46.58;;
46753;SDS011;32500;50.620;3.400;2023-02-28T00:10:07;55.83;;;46.67;;
46753;SDS011;32500;50.620;3.400;2023-02-28T00:12:38;55.23;;;46.57;;
46753;SDS011;32500;50.620;3.400;2023-02-28T00:15:09;55.38;;;47.00;;
46753;SDS011;32500;50.620;3.400;2023-02-28T00:17:35;55.88;;;46.95;;
46753;SDS011;32500;50.620;3.400;2023-02-28T00:20:03;54.63;;;46.28;;
46753;SDS011;32500;50.620;3.400;2023-02-28T00:22:33;54.15;;;46.55;;
46753;SDS011;32500;50.620;3.400;2023-02-28T00:24:59;55.58;;;46.53;;
46753;SDS011;32500;50.620;3.400;2023-02-28T00:27:24;55.17;;;46.70;;
46753;SDS011;32500;50.620;3.400;2023-02-28T00:29:50;55.60;;;46.92;;
46753;SDS011;32500;50.620;3.400;2023-02-28T00:32:16;56.20;;;46.80;;
46753;SDS011;32500;50.620;3.400;2023-02-28T00:34:42;55.58;;;46.65;;
46753;SDS011;32500;50.620;3.400;2023-02-28T00:37:08;53.97;;;46.28;;
46753;SDS011;32500;50.620;3.400;2023-02-28T00:39:37;55.83;;;46.85;;
46753;SDS011;32500;50.620;3.400;2023-02-28T00:42:03;56.25;;;46.88;;
46753;SDS011;32500;50.620;3.400;2023-02-28T00:44:31;55.40;;;46.75;;
46753;SDS011;32500;50.620;3.400;2023-02-28T00:46:57;56.70;;;47.05;;
46753;SDS011;32500;50.620;3.400;2023-02-28T00:49:24;54.33;;;46.40;;
46753;SDS011;32500;50.620;3.400;2023-02-28T00:51:51;56.47;;;46.75;;
46753;SDS011;32500;50.620;3.400;2023-02-28T00:54:18;55.50;;;46.90;;
46753;SDS011;32500;50.620;3.400;2023-02-28T00:56:44;56.15;;;46.75;;
46753;SDS011;32500;50.620;3.400;2023-02-28T00:59:11;54.47;;;46.35;;
46753;SDS011;32500;50.620;3.400;2023-02-28T01:01:37;55.40;;;46.88;;
46753;SDS011;32500;50.620;3.400;2023-02-28T01:04:03;55.80;;;46.70;;
46753;SDS011;32500;50.620;3.400;2023-02-28T01:06:29;55.40;;;46.80;;
46753;SDS011;32500;50.620;3.400;2023-02-28T01:08:56;54.30;;;46.20;;
46753;SDS011;32500;50.620;3.400;2023-02-28T01:11:22;55.10;;;46.97;;
46753;SDS011;32500;50.620;3.400;2023-02-28T01:13:48;54.20;;;46.57;;
46753;SDS011;32500;50.620;3.400;2023-02-28T01:16:13;55.00;;;46.55;;
46753;SDS011;32500;50.620;3.400;2023-02-28T01:18:40;54.88;;;46.75;;
46753;SDS011;32500;50.620;3.400;2023-02-28T01:21:07;56.03;;;46.80;;
46753;SDS011;32500;50.620;3.400;2023-02-28T01:23:37;54.55;;;46.53;;
46753;SDS011;32500;50.620;3.400;2023-02-28T01:26:05;54.43;;;46.53;;
46753;SDS011;32500;50.620;3.400;2023-02-28T01:28:31;55.58;;;46.70;;
46753;SDS011;32500;50.620;3.400;2023-02-28T01:30:57;56.27;;;46.80;;
46753;SDS011;32500;50.620;3.400;2023-02-28T01:33:22;54.83;;;47.00;;
46753;SDS011;32500;50.620;3.400;2023-02-28T01:35:48;54.30;;;46.30;;
46753;SDS011;32500;50.620;3.400;2023-02-28T01:38:14;54.83;;;46.80;;
46753;SDS011;32500;50.620;3.400;2023-02-28T01:40:40;55.13;;;46.70;;
46753;SDS011;32500;50.620;3.400;2023-02-28T01:43:25;55.07;;;46.40;;
46753;SDS011;32500;50.620;3.400;2023-02-28T01:45:52;54.53;;;46.87;;
46753;SDS011;32500;50.620;3.400;2023-02-28T01:48:21;54.93;;;46.83;;
46753;SDS011;32500;50.620;3.400;2023-02-28T01:50:51;54.95;;;46.70;;
46753;SDS011;32500;50.620;3.400;2023-02-28T01:53:18;54.80;;;46.50;;
46753;SDS011;32500;50.620;3.400;2023-02-28T01:55:48;54.87;;;46.43;;
46753;SDS011;32500;50.620;3.400;2023-02-28T01:58:17;55.07;;;46.87;;
46753;SDS011;32500;50.620;3.400;2023-02-28T02:00:43;55.97;;;46.93;;
46753;SDS011;32500;50.620;3.400;2023-02-28T02:03:10;53.60;;;46.40;;
46753;SDS011;32500;50.620;3.400;2023-02-28T02:05:39;54.63;;;46.60;;
46753;SDS011;32500;50.620;3.400;2023-02-28T02:08:06;54.77;;;46.67;;
46753;SDS011;32500;50.620;3.400;2023-02-28T02:10:51;55.77;;;46.93;;
46753;SDS011;32500;50.620;3.400;2023-02-28T02:35:53;53.83;;;46.33;;
46753;SDS011;32500;50.620;3.400;2023-02-28T02:38:28;54.13;;;46.23;;
46753;SDS011;32500;50.620;3.400;2023-02-28T02:48:57;54.57;;;46.60;;
46753;SDS011;32500;50.620;3.400;2023-02-28T02:51:25;56.27;;;46.90;;
46753;SDS011;32500;50.620;3.400;2023-02-28T02:54:06;54.00;;;46.47;;
46753;SDS011;32500;50.620;3.400;2023-02-28T02:56:36;53.63;;;46.47;;
46753;SDS011;32500;50.620;3.400;2023-02-28T02:59:07;55.63;;;46.53;;
46753;SDS011;32500;50.620;3.400;2023-02-28T03:01:36;54.67;;;46.60;;
46753;SDS011;32500;50.620;3.400;2023-02-28T03:04:05;53.73;;;46.33;;
46753;SDS011;32500;50.620;3.400;2023-02-28T03:06:33;54.88;;;47.20;;
46753;SDS011;32500;50.620;3.400;2023-02-28T03:09:00;54.60;;;46.93;;
46753;SDS011;32500;50.620;3.400;2023-02-28T03:11:26;56.23;;;46.87;;
46753;SDS011;32500;50.620;3.400;2023-02-28T03:19:33;54.40;;;46.47;;
46753;SDS011;32500;50.620;3.400;2023-02-28T03:27:40;53.60;;;46.70;;
46753;SDS011;32500;50.620;3.400;2023-02-28T03:30:58;54.20;;;46.67;;
46753;SDS011;32500;50.620;3.400;2023-02-28T03:33:19;54.65;;;47.03;;
46753;SDS011;32500;50.620;3.400;2023-02-28T03:35:59;53.97;;;46.77;;
46753;SDS011;32500;50.620;3.400;2023-02-28T03:39:13;53.83;;;46.77;;
46753;SDS011;32500;50.620;3.400;2023-02-28T03:41:42;53.33;;;46.27;;
46753;SDS011;32500;50.620;3.400;2023-02-28T03:44:16;55.10;;;46.60;;
46753;SDS011;32500;50.620;3.400;2023-02-28T03:47:00;55.57;;;46.80;;
46753;SDS011;32500;50.620;3.400;2023-02-28T03:49:39;53.55;;;46.45;;
46753;SDS011;32500;50.620;3.400;2023-02-28T03:52:12;54.17;;;46.33;;
46753;SDS011;32500;50.620;3.400;2023-02-28T03:54:41;54.17;;;46.60;;
46753;SDS011;32500;50.620;3.400;2023-02-28T03:57:17;54.33;;;46.67;;
46753;SDS011;32500;50.620;3.400;2023-02-28T04:00:00;55.27;;;47.33;;
46753;SDS011;32500;50.620;3.400;2023-02-28T04:02:33;54.23;;;46.40;;
46753;SDS011;32500;50.620;3.400;2023-02-28T04:04:59;54.30;;;46.70;;
46753;SDS011;32500;50.620;3.400;2023-02-28T04:07:28;53.97;;;46.40;;
46753;SDS011;32500;50.620;3.400;2023-02-28T04:09:55;53.87;;;46.70;;
46753;SDS011;32500;50.620;3.400;2023-02-28T04:12:21;53.87;;;46.47;;
46753;SDS011;32500;50.620;3.400;2023-02-28T04:14:48;54.60;;;47.10;;
46753;SDS011;32500;50.620;3.400;2023-02-28T04:17:15;53.07;;;46.13;;
46753;SDS011;32500;50.620;3.400;2023-02-28T04:19:40;54.40;;;46.77;;
46753;SDS011;32500;50.620;3.400;2023-02-28T04:22:07;55.30;;;46.90;;
46753;SDS011;32500;50.620;3.400;2023-02-28T04:24:33;55.37;;;46.80;;
46753;SDS011;32500;50.620;3.400;2023-02-28T04:26:59;54.13;;;46.43;;
46753;SDS011;32500;50.620;3.400;2023-02-28T04:29:26;55.87;;;46.97;;
46753;SDS011;32500;50.620;3.400;2023-02-28T04:31:53;54.33;;;46.63;;
46753;SDS011;32500;50.620;3.400;2023-02-28T04:34:22;54.53;;;47.23;;
46753;SDS011;32500;50.620;3.400;2023-02-28T04:36:49;55.20;;;47.17;;
46753;SDS011;32500;50.620;3.400;2023-02-28T04:39:18;55.07;;;46.73;;
46753;SDS011;32500;50.620;3.400;2023-02-28T04:41:44;54.40;;;46.83;;
46753;SDS011;32500;50.620;3.400;2023-02-28T04:44:10;53.87;;;46.63;;
46753;SDS011;32500;50.620;3.400;2023-02-28T04:46:36;53.13;;;46.70;;
46753;SDS011;32500;50.620;3.400;2023-02-28T04:49:02;54.63;;;47.23;;
46753;SDS011;32500;50.620;3.400;2023-02-28T04:51:28;54.70;;;47.13;;
46753;SDS011;32500;50.620;3.400;2023-02-28T04:53:54;53.97;;;46.70;;
46753;SDS011;32500;50.620;3.400;2023-02-28T04:56:20;54.53;;;46.90;;
46753;SDS011;32500;50.620;3.400;2023-02-28T04:58:46;55.70;;;46.87;;
46753;SDS011;32500;50.620;3.400;2023-02-28T05:03:58;55.17;;;47.57;;
46753;SDS011;32500;50.620;3.400;2023-02-28T05:06:26;55.80;;;46.87;;
46753;SDS011;32500;50.620;3.400;2023-02-28T05:08:53;55.20;;;46.87;;
46753;SDS011;32500;50.620;3.400;2023-02-28T05:11:20;54.63;;;47.20;;
46753;SDS011;32500;50.620;3.400;2023-02-28T05:13:48;54.57;;;46.73;;
46753;SDS011;32500;50.620;3.400;2023-02-28T05:16:14;54.50;;;47.07;;
46753;SDS011;32500;50.620;3.400;2023-02-28T05:18:40;54.50;;;46.90;;
46753;SDS011;32500;50.620;3.400;2023-02-28T05:21:12;54.97;;;47.13;;
46753;SDS011;32500;50.620;3.400;2023-02-28T05:23:49;54.40;;;47.30;;
46753;SDS011;32500;50.620;3.400;2023-02-28T05:26:15;54.47;;;47.03;;
46753;SDS011;32500;50.620;3.400;2023-02-28T05:28:40;55.43;;;47.60;;
46753;SDS011;32500;50.620;3.400;2023-02-28T05:31:07;54.83;;;47.23;;
46753;SDS011;32500;50.620;3.400;2023-02-28T05:33:35;54.30;;;46.70;;
46753;SDS011;32500;50.620;3.400;2023-02-28T05:36:01;54.37;;;47.13;;
46753;SDS011;32500;50.620;3.400;2023-02-28T05:38:27;55.63;;;47.07;;
46753;SDS011;32500;50.620;3.400;2023-02-28T05:40:52;54.40;;;47.10;;
46753;SDS011;32500;50.620;3.400;2023-02-28T05:43:18;54.50;;;47.13;;
46753;SDS011;32500;50.620;3.400;2023-02-28T05:45:44;55.43;;;47.30;;
46753;SDS011;32500;50.620;3.400;2023-02-28T05:48:09;55.08;;;46.78;;
46753;SDS011;32500;50.620;3.400;2023-02-28T05:50:35;55.23;;;47.60;;
46753;SDS011;32500;50.620;3.400;2023-02-28T05:53:01;55.37;;;47.10;;
46753;SDS011;32500;50.620;3.400;2023-02-28T05:55:27;55.83;;;47.10;;
46753;SDS011;32500;50.620;3.400;2023-02-28T05:57:52;56.27;;;48.13;;
46753;SDS011;32500;50.620;3.400;2023-02-28T06:00:18;56.17;;;47.50;;
46753;SDS011;32500;50.620;3.400;2023-02-28T06:02:44;56.83;;;47.73;;
46753;SDS011;32500;50.620;3.400;2023-02-28T06:05:13;56.13;;;47.70;;
46753;SDS011;32500;50.620;3.400;2023-02-28T06:07:41;55.00;;;47.03;;
46753;SDS011;32500;50.620;3.400;2023-02-28T06:10:07;55.23;;;47.07;;
46753;SDS011;32500;50.620;3.400;2023-02-28T06:12:34;54.63;;;47.27;;
46753;SDS011;32500;50.620;3.400;2023-02-28T06:15:00;56.17;;;47.37;;
46753;SDS011;32500;50.620;3.400;2023-02-28T06:17:26;56.77;;;47.70;;
46753;SDS011;32500;50.620;3.400;2023-02-28T06:19:51;55.80;;;47.65;;
46753;SDS011;32500;50.620;3.400;2023-02-28T06:22:17;55.33;;;47.20;;
46753;SDS011;32500;50.620;3.400;2023-02-28T06:24:42;56.15;;;47.30;;
46753;SDS011;32500;50.620;3.400;2023-02-28T06:27:08;55.17;;;47.57;;
46753;SDS011;32500;50.620;3.400;2023-02-28T06:29:34;55.87;;;47.33;;
46753;SDS011;32500;50.620;3.400;2023-02-28T06:32:00;55.87;;;47.63;;
46753;SDS011;32500;50.620;3.400;2023-02-28T06:34:26;55.80;;;46.97;;
46753;SDS011;32500;50.620;3.400;2023-02-28T06:36:52;57.13;;;47.80;;
46753;SDS011;32500;50.620;3.400;2023-02-28T06:39:18;56.90;;;47.70;;
46753;SDS011;32500;50.620;3.400;2023-02-28T06:41:44;57.53;;;47.87;;
46753;SDS011;32500;50.620;3.400;2023-02-28T06:44:13;56.83;;;47.13;;
46753;SDS011;32500;50.620;3.400;2023-02-28T06:46:41;56.77;;;47.20;;
46753;SDS011;32500;50.620;3.400;2023-02-28T06:49:08;56.17;;;47.83;;
46753;SDS011;32500;50.620;3.400;2023-02-28T06:51:36;55.57;;;47.57;;
46753;SDS011;32500;50.620;3.400;2023-02-28T06:54:03;57.20;;;47.70;;
46753;SDS011;32500;50.620;3.400;2023-02-28T06:56:29;55.42;;;46.78;;
46753;SDS011;32500;50.620;3.400;2023-02-28T06:58:55;56.07;;;47.40;;
46753;SDS011;32500;50.620;3.400;2023-02-28T07:01:21;55.58;;;47.30;;
46753;SDS011;32500;50.620;3.400;2023-02-28T07:03:49;55.92;;;47.63;;
46753;SDS011;32500;50.620;3.400;2023-02-28T07:06:17;56.08;;;47.53;;
46753;SDS011;32500;50.620;3.400;2023-02-28T07:08:44;57.00;;;47.20;;
46753;SDS011;32500;50.620;3.400;2023-02-28T07:11:10;55.20;;;47.13;;
46753;SDS011;32500;50.620;3.400;2023-02-28T07:13:36;58.50;;;47.42;;
46753;SDS011;32500;50.620;3.400;2023-02-28T07:16:02;56.90;;;47.73;;
46753;SDS011;32500;50.620;3.400;2023-02-28T07:18:30;56.03;;;47.17;;
46753;SDS011;32500;50.620;3.400;2023-02-28T07:20:56;57.38;;;47.47;;
46753;SDS011;32500;50.620;3.400;2023-02-28T07:23:22;56.50;;;47.10;;
46753;SDS011;32500;50.620;3.400;2023-02-28T07:25:49;55.57;;;47.73;;
46753;SDS011;32500;50.620;3.400;2023-02-28T07:28:15;57.22;;;47.35;;
46753;SDS011;32500;50.620;3.400;2023-02-28T07:30:41;56.92;;;47.72;;
46753;SDS011;32500;50.620;3.400;2023-02-28T07:33:07;55.90;;;47.33;;
46753;SDS011;32500;50.620;3.400;2023-02-28T07:35:33;57.65;;;47.47;;
46753;SDS011;32500;50.620;3.400;2023-02-28T07:37:59;56.53;;;47.42;;
46753;SDS011;32500;50.620;3.400;2023-02-28T07:40:25;56.33;;;47.42;;
46753;SDS011;32500;50.620;3.400;2023-02-28T07:42:51;56.75;;;47.25;;
46753;SDS011;32500;50.620;3.400;2023-02-28T07:45:17;56.45;;;47.60;;
46753;SDS011;32500;50.620;3.400;2023-02-28T07:47:43;57.10;;;47.28;;
46753;SDS011;32500;50.620;3.400;2023-02-28T07:50:10;55.67;;;47.28;;
46753;SDS011;32500;50.620;3.400;2023-02-28T07:52:37;55.83;;;47.33;;
46753;SDS011;32500;50.620;3.400;2023-02-28T07:55:04;56.65;;;47.85;;
46753;SDS011;32500;50.620;3.400;2023-02-28T07:57:30;56.90;;;47.58;;
46753;SDS011;32500;50.620;3.400;2023-02-28T07:59:56;57.92;;;47.97;;
46753;SDS011;32500;50.620;3.400;2023-02-28T08:02:22;56.60;;;47.58;;
46753;SDS011;32500;50.620;3.400;2023-02-28T08:04:48;56.92;;;47.50;;
46753;SDS011;32500;50.620;3.400;2023-02-28T08:07:14;56.85;;;47.83;;
46753;SDS011;32500;50.620;3.400;2023-02-28T08:09:41;58.20;;;48.05;;
46753;SDS011;32500;50.620;3.400;2023-02-28T08:12:08;57.35;;;47.30;;
46753;SDS011;32500;50.620;3.400;2023-02-28T08:14:34;57.00;;;47.45;;
46753;SDS011;32500;50.620;3.400;2023-02-28T08:17:00;57.20;;;47.47;;
46753;SDS011;32500;50.620;3.400;2023-02-28T08:19:26;56.60;;;47.45;;
46753;SDS011;32500;50.620;3.400;2023-02-28T08:21:52;56.05;;;47.20;;
46753;SDS011;32500;50.620;3.400;2023-02-28T08:24:17;57.13;;;47.25;;
46753;SDS011;32500;50.620;3.400;2023-02-28T08:26:43;56.58;;;47.67;;
46753;SDS011;32500;50.620;3.400;2023-02-28T08:29:09;56.63;;;47.65;;
46753;SDS011;32500;50.620;3.400;2023-02-28T08:31:34;57.63;;;47.60;;
46753;SDS011;32500;50.620;3.400;2023-02-28T08:34:04;57.92;;;48.35;;
46753;SDS011;32500;50.620;3.400;2023-02-28T08:36:35;56.88;;;46.97;;
46753;SDS011;32500;50.620;3.400;2023-02-28T08:39:01;57.47;;;47.75;;
46753;SDS011;32500;50.620;3.400;2023-02-28T08:41:27;58.50;;;47.67;;
46753;SDS011;32500;50.620;3.400;2023-02-28T08:43:53;58.35;;;48.08;;
46753;SDS011;32500;50.620;3.400;2023-02-28T08:46:19;58.20;;;46.95;;
46753;SDS011;32500;50.620;3.400;2023-02-28T08:48:45;58.17;;;47.95;;
46753;SDS011;32500;50.620;3.400;2023-02-28T08:51:14;58.03;;;47.38;;
46753;SDS011;32500;50.620;3.400;2023-02-28T08:53:43;57.88;;;47.08;;
46753;SDS011;32500;50.620;3.400;2023-02-28T08:56:11;57.38;;;47.42;;
46753;SDS011;32500;50.620;3.400;2023-02-28T08:58:38;57.67;;;47.65;;
46753;SDS011;32500;50.620;3.400;2023-02-28T09:01:11;57.42;;;47.38;;
46753;SDS011;32500;50.620;3.400;2023-02-28T09:03:39;56.67;;;47.38;;
46753;SDS011;32500;50.620;3.400;2023-02-28T09:06:09;58.40;;;47.33;;
46753;SDS011;32500;50.620;3.400;2023-02-28T09:08:35;57.58;;;47.60;;
46753;SDS011;32500;50.620;3.400;2023-02-28T09:11:01;58.42;;;48.08;;
46753;SDS011;32500;50.620;3.400;2023-02-28T09:13:28;57.88;;;47.42;;
46753;SDS011;32500;50.620;3.400;2023-02-28T09:15:54;58.17;;;48.08;;
46753;SDS011;32500;50.620;3.400;2023-02-28T09:18:22;58.17;;;47.47;;
46753;SDS011;32500;50.620;3.400;2023-02-28T09:20:47;58.38;;;47.58;;
46753;SDS011;32500;50.620;3.400;2023-02-28T09:23:13;57.13;;;47.22;;
46753;SDS011;32500;50.620;3.400;2023-02-28T09:25:45;57.65;;;47.40;;
46753;SDS011;32500;50.620;3.400;2023-02-28T09:28:18;57.80;;;47.35;;
46753;SDS011;32500;50.620;3.400;2023-02-28T09:30:45;57.40;;;47.58;;
46753;SDS011;32500;50.620;3.400;2023-02-28T09:33:12;58.50;;;47.88;;
46753;SDS011;32500;50.620;3.400;2023-02-28T09:35:38;57.42;;;47.28;;
46753;SDS011;32500;50.620;3.400;2023-02-28T09:38:04;58.55;;;47.85;;
46753;SDS011;32500;50.620;3.400;2023-02-28T09:40:34;58.65;;;47.90;;
46753;SDS011;32500;50.620;3.400;2023-02-28T09:43:19;58.80;;;47.08;;
46753;SDS011;32500;50.620;3.400;2023-02-28T09:45:48;59.30;;;48.03;;
46753;SDS011;32500;50.620;3.400;2023-02-28T09:48:35;58.38;;;47.88;;
46753;SDS011;32500;50.620;3.400;2023-02-28T09:51:15;58.25;;;47.63;;
46753;SDS011;32500;50.620;3.400;2023-02-28T09:54:02;58.70;;;47.40;;
46753;SDS011;32500;50.620;3.400;2023-02-28T09:56:33;57.97;;;47.33;;
46753;SDS011;32500;50.620;3.400;2023-02-28T10:01:39;58.45;;;47.35;;
46753;SDS011;32500;50.620;3.400;2023-02-28T10:07:02;59.28;;;47.40;;
46753;SDS011;32500;50.620;3.400;2023-02-28T10:09:42;58.95;;;47.35;;
46753;SDS011;32500;50.620;3.400;2023-02-28T10:12:10;58.08;;;46.92;;
46753;SDS011;32500;50.620;3.400;2023-02-28T10:14:38;59.13;;;47.05;;
46753;SDS011;32500;50.620;3.400;2023-02-28T10:17:11;59.42;;;47.50;;
46753;SDS011;32500;50.620;3.400;2023-02-28T10:22:50;58.20;;;47.00;;
46753;SDS011;32500;50.620;3.400;2023-02-28T10:25:26;59.40;;;47.28;;
46753;SDS011;32500;50.620;3.400;2023-02-28T10:27:57;59.72;;;47.38;;
46753;SDS011;32500;50.620;3.400;2023-02-28T10:30:26;59.40;;;47.72;;
46753;SDS011;32500;50.620;3.400;2023-02-28T10:32:52;58.35;;;46.80;;
46753;SDS011;32500;50.620;3.400;2023-02-28T10:37:51;58.88;;;47.47;;
46753;SDS011;32500;50.620;3.400;2023-02-28T10:42:55;59.25;;;47.42;;
46753;SDS011;32500;50.620;3.400;2023-02-28T10:45:25;58.95;;;47.17;;
46753;SDS011;32500;50.620;3.400;2023-02-28T10:48:03;58.78;;;47.20;;
46753;SDS011;32500;50.620;3.400;2023-02-28T10:50:36;59.33;;;47.25;;
46753;SDS011;32500;50.620;3.400;2023-02-28T10:53:38;57.67;;;46.85;;
46753;SDS011;32500;50.620;3.400;2023-02-28T11:01:22;59.20;;;47.28;;
46753;SDS011;32500;50.620;3.400;2023-02-28T11:04:02;57.83;;;47.28;;
46753;SDS011;32500;50.620;3.400;2023-02-28T11:06:29;57.83;;;47.03;;
46753;SDS011;32500;50.620;3.400;2023-02-28T11:08:59;57.08;;;46.70;;
46753;SDS011;32500;50.620;3.400;2023-02-28T11:11:30;59.60;;;47.05;;
46753;SDS011;32500;50.620;3.400;2023-02-28T11:14:06;57.63;;;46.88;;
46753;SDS011;32500;50.620;3.400;2023-02-28T11:16:49;57.65;;;47.00;;
46753;SDS011;32500;50.620;3.400;2023-02-28T11:19:17;58.38;;;47.30;;
46753;SDS011;32500;50.620;3.400;2023-02-28T11:21:49;57.92;;;47.20;;
46753;SDS011;32500;50.620;3.400;2023-02-28T11:26:52;57.67;;;46.58;;
46753;SDS011;32500;50.620;3.400;2023-02-28T11:31:49;57.40;;;46.75;;
46753;SDS011;32500;50.620;3.400;2023-02-28T11:34:29;58.15;;;46.78;;
46753;SDS011;32500;50.620;3.400;2023-02-28T11:36:56;57.55;;;46.85;;
46753;SDS011;32500;50.620;3.400;2023-02-28T11:39:23;57.13;;;46.63;;
46753;SDS011;32500;50.620;3.400;2023-02-28T11:48:09;57.05;;;46.50;;
46753;SDS011;32500;50.620;3.400;2023-02-28T11:58:59;56.90;;;46.45;;
46753;SDS011;32500;50.620;3.400;2023-02-28T12:04:46;56.60;;;46.05;;
46753;SDS011;32500;50.620;3.400;2023-02-28T12:13:26;57.20;;;46.45;;
46753;SDS011;32500;50.620;3.400;2023-02-28T12:18:59;58.47;;;46.37;;
46753;SDS011;32500;50.620;3.400;2023-02-28T12:27:11;57.10;;;46.78;;
46753;SDS011;32500;50.620;3.400;2023-02-28T12:29:54;56.83;;;46.38;;
46753;SDS011;32500;50.620;3.400;2023-02-28T12:32:37;56.60;;;46.00;;
46753;SDS011;32500;50.620;3.400;2023-02-28T12:35:11;57.05;;;46.55;;
46753;SDS011;32500;50.620;3.400;2023-02-28T12:40:23;56.55;;;46.33;;
46753;SDS011;32500;50.620;3.400;2023-02-28T12:42:57;57.78;;;46.80;;
46753;SDS011;32500;50.620;3.400;2023-02-28T12:48:08;57.20;;;46.60;;
46753;SDS011;32500;50.620;3.400;2023-02-28T12:50:38;57.03;;;46.72;;
46753;SDS011;32500;50.620;3.400;2023-02-28T12:55:48;57.15;;;46.58;;
46753;SDS011;32500;50.620;3.400;2023-02-28T12:58:34;57.40;;;46.33;;
46753;SDS011;32500;50.620;3.400;2023-02-28T13:06:56;57.50;;;46.65;;
46753;SDS011;32500;50.620;3.400;2023-02-28T13:09:33;57.45;;;46.55;;
46753;SDS011;32500;50.620;3.400;2023-02-28T13:11:59;57.65;;;46.45;;
46753;SDS011;32500;50.620;3.400;2023-02-28T13:14:26;57.97;;;47.10;;
46753;SDS011;32500;50.620;3.400;2023-02-28T13:19:40;57.75;;;46.80;;
46753;SDS011;32500;50.620;3.400;2023-02-28T13:22:20;57.30;;;46.47;;
46753;SDS011;32500;50.620;3.400;2023-02-28T13:25:02;57.88;;;46.45;;
46753;SDS011;32500;50.620;3.400;2023-02-28T13:27:51;57.85;;;46.53;;
46753;SDS011;32500;50.620;3.400;2023-02-28T13:36:00;57.03;;;46.53;;
46753;SDS011;32500;50.620;3.400;2023-02-28T13:38:47;57.15;;;46.35;;
46753;SDS011;32500;50.620;3.400;2023-02-28T13:41:41;57.05;;;46.60;;
46753;SDS011;32500;50.620;3.400;2023-02-28T13:51:51;57.10;;;46.63;;
46753;SDS011;32500;50.620;3.400;2023-02-28T14:02:11;57.63;;;46.88;;
46753;SDS011;32500;50.620;3.400;2023-02-28T14:04:49;57.47;;;46.67;;
46753;SDS011;32500;50.620;3.400;2023-02-28T14:07:26;57.63;;;46.55;;
46753;SDS011;32500;50.620;3.400;2023-02-28T14:10:01;57.30;;;46.65;;
46753;SDS011;32500;50.620;3.400;2023-02-28T14:32:21;58.30;;;47.35;;
46753;SDS011;32500;50.620;3.400;2023-02-28T14:34:53;57.58;;;46.72;;
46753;SDS011;32500;50.620;3.400;2023-02-28T14:37:24;57.63;;;46.95;;
46753;SDS011;32500;50.620;3.400;2023-02-28T14:39:53;58.55;;;47.28;;
46753;SDS011;32500;50.620;3.400;2023-02-28T14:42:39;57.65;;;46.92;;
46753;SDS011;32500;50.620;3.400;2023-02-28T14:45:18;58.67;;;47.38;;
46753;SDS011;32500;50.620;3.400;2023-02-28T14:47:45;57.78;;;46.90;;
46753;SDS011;32500;50.620;3.400;2023-02-28T14:50:19;58.22;;;47.15;;
46753;SDS011;32500;50.620;3.400;2023-02-28T14:52:56;59.80;;;47.20;;
46753;SDS011;32500;50.620;3.400;2023-02-28T14:55:29;58.38;;;47.35;;
46753;SDS011;32500;50.620;3.400;2023-02-28T14:58:18;57.33;;;46.85;;
46753;SDS011;32500;50.620;3.400;2023-02-28T15:00:58;57.88;;;46.78;;
46753;SDS011;32500;50.620;3.400;2023-02-28T15:03:37;58.22;;;47.20;;
46753;SDS011;32500;50.620;3.400;2023-02-28T15:06:05;57.45;;;46.78;;
46753;SDS011;32500;50.620;3.400;2023-02-28T15:08:38;58.03;;;47.15;;
46753;SDS011;32500;50.620;3.400;2023-02-28T15:11:14;58.58;;;47.35;;
46753;SDS011;32500;50.620;3.400;2023-02-28T15:13:48;57.80;;;46.83;;
46753;SDS011;32500;50.620;3.400;2023-02-28T15:21:45;58.20;;;47.13;;
46753;SDS011;32500;50.620;3.400;2023-02-28T15:24:31;58.35;;;46.88;;
46753;SDS011;32500;50.620;3.400;2023-02-28T15:27:15;57.97;;;46.95;;
46753;SDS011;32500;50.620;3.400;2023-02-28T15:29:51;58.25;;;46.92;;
46753;SDS011;32500;50.620;3.400;2023-02-28T15:32:28;59.25;;;47.25;;
46753;SDS011;32500;50.620;3.400;2023-02-28T15:34:56;59.90;;;47.45;;
46753;SDS011;32500;50.620;3.400;2023-02-28T15:42:39;60.90;;;47.72;;
46753;SDS011;32500;50.620;3.400;2023-02-28T15:45:05;61.83;;;47.55;;
46753;SDS011;32500;50.620;3.400;2023-02-28T15:47:51;61.45;;;48.05;;
46753;SDS011;32500;50.620;3.400;2023-02-28T15:50:17;60.95;;;47.65;;
46753;SDS011;32500;50.620;3.400;2023-02-28T15:52:43;62.78;;;48.03;;
46753;SDS011;32500;50.620;3.400;2023-02-28T15:55:10;60.83;;;48.05;;
46753;SDS011;32500;50.620;3.400;2023-02-28T15:57:44;60.28;;;47.47;;
46753;SDS011;32500;50.620;3.400;2023-02-28T16:00:12;60.85;;;47.50;;
46753;SDS011;32500;50.620;3.400;2023-02-28T16:02:39;60.00;;;47.38;;
46753;SDS011;32500;50.620;3.400;2023-02-28T16:07:32;60.08;;;47.65;;
46753;SDS011;32500;50.620;3.400;2023-02-28T16:09:59;59.40;;;47.63;;
46753;SDS011;32500;50.620;3.400;2023-02-28T16:12:26;59.55;;;47.25;;
46753;SDS011;32500;50.620;3.400;2023-02-28T16:14:54;59.20;;;47.38;;
46753;SDS011;32500;50.620;3.400;2023-02-28T16:17:26;59.70;;;47.33;;
46753;SDS011;32500;50.620;3.400;2023-02-28T16:19:54;59.00;;;47.45;;
46753;SDS011;32500;50.620;3.400;2023-02-28T16:22:21;59.42;;;47.35;;
46753;SDS011;32500;50.620;3.400;2023-02-28T16:24:47;60.15;;;47.38;;
46753;SDS011;32500;50.620;3.400;2023-02-28T16:27:25;58.72;;;47.03;;
46753;SDS011;32500;50.620;3.400;2023-02-28T16:29:56;58.42;;;46.83;;
46753;SDS011;32500;50.620;3.400;2023-02-28T16:32:21;59.13;;;47.10;;
46753;SDS011;32500;50.620;3.400;2023-02-28T16:34:47;58.22;;;47.15;;
46753;SDS011;32500;50.620;3.400;2023-02-28T16:37:13;58.80;;;46.80;;
46753;SDS011;32500;50.620;3.400;2023-02-28T16:39:41;58.55;;;47.15;;
46753;SDS011;32500;50.620;3.400;2023-02-28T16:45:02;58.20;;;47.35;;
46753;SDS011;32500;50.620;3.400;2023-02-28T16:47:28;58.15;;;46.83;;
46753;SDS011;32500;50.620;3.400;2023-02-28T16:49:56;58.22;;;47.30;;
46753;SDS011;32500;50.620;3.400;2023-02-28T16:52:21;57.92;;;47.03;;
46753;SDS011;32500;50.620;3.400;2023-02-28T16:54:47;57.92;;;47.05;;
46753;SDS011;32500;50.620;3.400;2023-02-28T16:57:22;58.10;;;47.05;;
46753;SDS011;32500;50.620;3.400;2023-02-28T16:59:49;57.72;;;46.60;;
46753;SDS011;32500;50.620;3.400;2023-02-28T17:02:16;57.03;;;46.72;;
46753;SDS011;32500;50.620;3.400;2023-02-28T17:04:44;57.50;;;46.88;;
46753;SDS011;32500;50.620;3.400;2023-02-28T17:07:14;57.53;;;46.72;;
46753;SDS011;32500;50.620;3.400;2023-02-28T17:09:41;57.40;;;46.75;;
46753;SDS011;32500;50.620;3.400;2023-02-28T17:12:08;57.15;;;46.78;;
46753;SDS011;32500;50.620;3.400;2023-02-28T17:14:35;56.97;;;46.67;;
46753;SDS011;32500;50.620;3.400;2023-02-28T17:17:01;56.80;;;46.72;;
46753;SDS011;32500;50.620;3.400;2023-02-28T17:19:29;56.33;;;46.38;;
46753;SDS011;32500;50.620;3.400;2023-02-28T17:21:54;57.38;;;46.80;;
46753;SDS011;32500;50.620;3.400;2023-02-28T17:24:20;56.83;;;46.40;;
46753;SDS011;32500;50.620;3.400;2023-02-28T17:26:45;57.13;;;46.65;;
46753;SDS011;32500;50.620;3.400;2023-02-28T17:29:13;57.17;;;46.72;;